createdAt,value
2022-11-30T00:08:28.446Z,6.8
2022-11-30T00:18:30.910Z,6.8
2022-11-30T00:38:35.722Z,6.8
2022-11-30T00:48:37.458Z,6.7
2022-11-30T00:58:40.141Z,6.5
2022-11-30T01:08:42.662Z,6.3
2022-11-30T01:18:44.709Z,6.1
2022-11-30T01:28:47.184Z,5.8
2022-11-30T01:38:49.254Z,5.7
2022-11-30T01:48:51.159Z,5.6
2022-11-30T01:58:53.393Z,5.4
2022-11-30T02:08:55.773Z,5.3
2022-11-30T02:18:57.815Z,5.4
2022-11-30T02:29:00.091Z,5.4
2022-11-30T02:39:02.369Z,5.3
2022-11-30T02:49:04.141Z,5.3
2022-11-30T02:59:05.985Z,5.2
2022-11-30T03:09:07.961Z,5.2
2022-11-30T03:19:09.866Z,5.2
2022-11-30T03:29:11.841Z,5.2
2022-11-30T03:39:13.943Z,5.3
2022-11-30T03:49:15.992Z,5.3
2022-11-30T04:29:23.784Z,5.3
2022-11-30T05:09:31.484Z,5.3
2022-11-30T05:19:33.556Z,5.3
2022-11-30T05:29:36.116Z,5.2
2022-11-30T05:39:38.641Z,5.3
2022-11-30T05:49:41.304Z,5.3
2022-11-30T05:59:43.615Z,5.3
2022-11-30T06:09:45.452Z,5.3
2022-11-30T06:19:48.011Z,5.4
2022-11-30T06:29:50.426Z,5.3
2022-11-30T06:31:17.874Z,5.4
2022-11-30T06:40:07.887Z,5.3
2022-11-30T06:50:02.713Z,5.3
2022-11-30T07:00:04.925Z,5.3
2022-11-30T07:10:06.860Z,5.3
2022-11-30T07:20:09.191Z,5.3
2022-11-30T07:30:11.391Z,5.4
2022-11-30T07:50:15.691Z,5.4
2022-11-30T08:00:17.552Z,5.4
2022-11-30T08:10:20.061Z,5.4
2022-11-30T08:30:27.751Z,5.6
2022-11-30T08:40:26.330Z,5.5
2022-11-30T08:50:28.323Z,5.6
2022-11-30T09:10:32.401Z,5.7
2022-11-30T09:20:34.723Z,5.7
2022-11-30T09:30:37.373Z,5.7
2022-11-30T09:50:42.303Z,5.6
2022-11-30T10:10:46.380Z,5.7
2022-11-30T10:20:48.842Z,5.7
2022-11-30T10:50:55.634Z,5.5
2022-11-30T11:00:57.834Z,5.6
2022-11-30T11:11:00.088Z,5.5
2022-11-30T11:21:05.751Z,5.6
2022-11-30T11:31:04.267Z,5.4
2022-11-30T11:41:06.419Z,5.5
2022-11-30T11:51:08.713Z,5.4
2022-11-30T12:01:38.446Z,5.4
2022-11-30T12:11:12.856Z,5.5
2022-11-30T12:21:15.414Z,5.5
2022-11-30T12:31:17.307Z,5.4
2022-11-30T12:41:19.606Z,5.4
2022-11-30T12:51:25.099Z,5.4
2022-11-30T13:01:23.530Z,5.5
2022-11-30T13:11:25.453Z,5.5
2022-11-30T13:21:27.686Z,5.5
2022-11-30T13:31:30.176Z,5.4
2022-11-30T13:41:31.814Z,5.4
2022-11-30T13:51:33.822Z,5.4
2022-11-30T14:01:35.617Z,5.3
2022-11-30T14:11:37.657Z,5.2
2022-11-30T14:21:40.243Z,5.3
2022-11-30T14:31:42.449Z,5.2
2022-11-30T14:41:44.895Z,5.2
2022-11-30T14:51:47.559Z,5.1
2022-11-30T15:01:49.811Z,5.1
2022-11-30T15:11:52.120Z,5.1
2022-11-30T15:21:54.686Z,5.1
2022-11-30T15:31:56.555Z,5
2022-11-30T15:41:58.339Z,5
2022-11-30T15:52:00.998Z,5
2022-11-30T16:12:05.304Z,4.9
2022-11-30T16:32:09.701Z,4.8
2022-11-30T16:52:14.166Z,4.7
2022-11-30T17:02:16.640Z,4.6
2022-11-30T17:12:19.267Z,4.6
2022-11-30T17:22:21.703Z,4.5
2022-11-30T17:32:23.794Z,4.5
2022-11-30T17:42:26.153Z,4.5
2022-11-30T17:52:28.379Z,4.5
2022-11-30T18:02:30.686Z,4.5
2022-11-30T18:12:32.686Z,4.5
2022-11-30T18:22:35.214Z,4.5
2022-11-30T18:32:37.661Z,4.5
2022-11-30T18:42:39.607Z,4.5
2022-11-30T18:52:42.229Z,4.5
2022-11-30T19:02:44.791Z,4.5
2022-11-30T19:12:46.488Z,4.4
2022-11-30T19:22:48.993Z,4.4
2022-11-30T19:32:51.040Z,4.5
2022-11-30T19:42:52.949Z,4.5
2022-11-30T19:52:55.160Z,4.5
2022-11-30T20:02:57.086Z,4.5
2022-11-30T20:12:59.508Z,4.5
2022-11-30T20:23:01.627Z,4.5
2022-11-30T20:33:03.602Z,4.5
2022-11-30T20:43:05.964Z,4.5
2022-11-30T20:53:08.148Z,4.5
2022-11-30T21:03:09.937Z,4.5
2022-11-30T21:13:11.794Z,4.5
2022-11-30T21:23:13.868Z,4.6
2022-11-30T21:33:15.938Z,4.5
2022-11-30T21:43:17.949Z,4.4
2022-11-30T21:53:19.868Z,4.5
2022-11-30T22:03:22.122Z,4.5
2022-11-30T22:13:24.394Z,4.5
2022-11-30T22:23:26.588Z,4.5
2022-11-30T22:33:28.876Z,4.5
2022-11-30T23:13:38.145Z,4.5
2022-11-30T23:33:42.733Z,4.5
2022-11-30T23:43:45.180Z,4.5
2022-11-30T23:53:47.724Z,4.5
